Decoded Metar for UMGG (GOMEL in BELARUS) (IATA:GME) | Meteo·Mobile Aviation Weather
aviador You're here:

UMGG Decoded Metar

GOMEL in BELARUS
Report Time2019-07-23 03:00:00
UTC Time2019-07-23 03:11:16
Flight Rules mvfr MVFR
Wind270° at 8 kt
W.Decomp.*RWY 28: 7.7 kt HW 2.3 kt LCW
Visibility6000 m
Phenomena:N/A
Clouds:N/A
Expected CloudBase > 400 ft AGL from Temp-Dew spread
CeilingNone
Temp14°C (ISA -0)
Dew Point13°C (94% RH)
AAT12.1°C
QNH1013 hPa
Density Alt666 ft
Elevation472 ft
Report Wrong Elevation
Raw Report
METAR UMGG 230300Z 27004MPS 6000 NSC 14/13 Q1013 R28/290050 NOSIG=

Extra information for UMGG:More info

Metar Taf Metar & Taf Last 4 Metars F.Rules Stats Wind Profile Meteogram Temp Stats Airport Information Weather charts Add Link Nearby VenuesMetar ALERT Operation Metar Decoded Social comments